sensor_id;sensor_type;location;lat;lon;timestamp;P1;durP1;ratioP1;P2;durP2;ratioP2
1505;SDS011;744;51.436;7.356;2023-07-22T00:01:24;8.30;;;6.77;;
1505;SDS011;744;51.436;7.356;2023-07-22T00:03:51;7.80;;;7.00;;
1505;SDS011;744;51.436;7.356;2023-07-22T00:06:18;7.57;;;6.50;;
1505;SDS011;744;51.436;7.356;2023-07-22T00:08:46;7.90;;;7.07;;
1505;SDS011;744;51.436;7.356;2023-07-22T00:11:13;8.93;;;7.07;;
1505;SDS011;744;51.436;7.356;2023-07-22T00:13:40;9.13;;;7.67;;
1505;SDS011;744;51.436;7.356;2023-07-22T00:16:07;9.90;;;7.87;;
1505;SDS011;744;51.436;7.356;2023-07-22T00:18:34;8.33;;;7.47;;
1505;SDS011;744;51.436;7.356;2023-07-22T00:21:01;7.07;;;6.10;;
1505;SDS011;744;51.436;7.356;2023-07-22T00:23:28;8.83;;;7.90;;
1505;SDS011;744;51.436;7.356;2023-07-22T00:25:56;9.13;;;7.37;;
1505;SDS011;744;51.436;7.356;2023-07-22T00:28:23;8.00;;;7.20;;
1505;SDS011;744;51.436;7.356;2023-07-22T00:30:49;10.30;;;6.97;;
1505;SDS011;744;51.436;7.356;2023-07-22T00:33:17;9.70;;;6.47;;
1505;SDS011;744;51.436;7.356;2023-07-22T00:35:47;8.23;;;7.20;;
1505;SDS011;744;51.436;7.356;2023-07-22T00:38:16;11.13;;;7.10;;
1505;SDS011;744;51.436;7.356;2023-07-22T00:40:43;9.37;;;7.23;;
1505;SDS011;744;51.436;7.356;2023-07-22T00:43:10;7.30;;;6.50;;
1505;SDS011;744;51.436;7.356;2023-07-22T00:45:37;8.03;;;7.23;;
1505;SDS011;744;51.436;7.356;2023-07-22T00:48:05;6.90;;;6.20;;
1505;SDS011;744;51.436;7.356;2023-07-22T00:50:32;8.50;;;6.90;;
1505;SDS011;744;51.436;7.356;2023-07-22T00:52:59;8.13;;;7.10;;
1505;SDS011;744;51.436;7.356;2023-07-22T00:55:26;9.67;;;7.23;;
1505;SDS011;744;51.436;7.356;2023-07-22T00:57:54;12.10;;;6.70;;
1505;SDS011;744;51.436;7.356;2023-07-22T01:00:22;9.90;;;6.40;;
1505;SDS011;744;51.436;7.356;2023-07-22T01:02:49;7.60;;;6.87;;
1505;SDS011;744;51.436;7.356;2023-07-22T01:05:16;8.37;;;7.57;;
1505;SDS011;744;51.436;7.356;2023-07-22T01:07:43;8.70;;;6.63;;
1505;SDS011;744;51.436;7.356;2023-07-22T01:10:12;8.53;;;7.60;;
1505;SDS011;744;51.436;7.356;2023-07-22T01:12:39;8.20;;;7.40;;
1505;SDS011;744;51.436;7.356;2023-07-22T01:15:06;8.73;;;6.73;;
1505;SDS011;744;51.436;7.356;2023-07-22T01:17:36;13.10;;;7.40;;
1505;SDS011;744;51.436;7.356;2023-07-22T01:20:04;7.73;;;7.03;;
1505;SDS011;744;51.436;7.356;2023-07-22T01:22:32;7.77;;;7.00;;
1505;SDS011;744;51.436;7.356;2023-07-22T01:24:59;9.00;;;6.80;;
1505;SDS011;744;51.436;7.356;2023-07-22T01:27:27;8.83;;;7.03;;
1505;SDS011;744;51.436;7.356;2023-07-22T01:29:54;8.80;;;7.13;;
1505;SDS011;744;51.436;7.356;2023-07-22T01:32:21;7.53;;;6.63;;
1505;SDS011;744;51.436;7.356;2023-07-22T01:34:48;8.00;;;6.90;;
1505;SDS011;744;51.436;7.356;2023-07-22T01:37:14;8.10;;;6.80;;
1505;SDS011;744;51.436;7.356;2023-07-22T01:39:41;7.27;;;6.03;;
1505;SDS011;744;51.436;7.356;2023-07-22T01:42:08;7.57;;;6.80;;
1505;SDS011;744;51.436;7.356;2023-07-22T01:44:35;8.87;;;7.57;;
1505;SDS011;744;51.436;7.356;2023-07-22T01:47:02;14.77;;;7.23;;
1505;SDS011;744;51.436;7.356;2023-07-22T01:49:29;8.20;;;6.43;;
1505;SDS011;744;51.436;7.356;2023-07-22T01:51:56;8.27;;;6.73;;
1505;SDS011;744;51.436;7.356;2023-07-22T01:54:23;8.07;;;7.23;;
1505;SDS011;744;51.436;7.356;2023-07-22T01:56:50;8.10;;;7.27;;
1505;SDS011;744;51.436;7.356;2023-07-22T01:59:17;19.93;;;8.37;;
1505;SDS011;744;51.436;7.356;2023-07-22T02:01:43;8.53;;;7.27;;
1505;SDS011;744;51.436;7.356;2023-07-22T02:04:10;7.90;;;6.37;;
1505;SDS011;744;51.436;7.356;2023-07-22T02:06:37;9.43;;;7.30;;
1505;SDS011;744;51.436;7.356;2023-07-22T02:09:04;9.53;;;8.13;;
1505;SDS011;744;51.436;7.356;2023-07-22T02:11:35;9.37;;;6.77;;
1505;SDS011;744;51.436;7.356;2023-07-22T02:14:02;9.33;;;6.23;;
1505;SDS011;744;51.436;7.356;2023-07-22T02:16:36;7.87;;;6.20;;
1505;SDS011;744;51.436;7.356;2023-07-22T02:19:04;7.80;;;7.00;;
1505;SDS011;744;51.436;7.356;2023-07-22T02:21:31;7.60;;;6.73;;
1505;SDS011;744;51.436;7.356;2023-07-22T02:23:58;8.53;;;6.93;;
1505;SDS011;744;51.436;7.356;2023-07-22T02:26:25;9.23;;;7.53;;
1505;SDS011;744;51.436;7.356;2023-07-22T02:28:52;9.20;;;6.73;;
1505;SDS011;744;51.436;7.356;2023-07-22T02:31:21;9.83;;;7.30;;
1505;SDS011;744;51.436;7.356;2023-07-22T02:33:49;11.40;;;7.10;;
1505;SDS011;744;51.436;7.356;2023-07-22T02:36:16;7.33;;;6.53;;
1505;SDS011;744;51.436;7.356;2023-07-22T02:38:43;9.40;;;7.50;;
1505;SDS011;744;51.436;7.356;2023-07-22T02:41:09;8.77;;;6.87;;
1505;SDS011;744;51.436;7.356;2023-07-22T02:43:37;10.40;;;7.33;;
1505;SDS011;744;51.436;7.356;2023-07-22T02:46:04;7.97;;;6.40;;
1505;SDS011;744;51.436;7.356;2023-07-22T02:48:34;9.63;;;7.40;;
1505;SDS011;744;51.436;7.356;2023-07-22T02:51:04;11.10;;;7.20;;
1505;SDS011;744;51.436;7.356;2023-07-22T02:53:34;8.80;;;7.90;;
1505;SDS011;744;51.436;7.356;2023-07-22T02:56:04;11.07;;;6.60;;
1505;SDS011;744;51.436;7.356;2023-07-22T02:58:33;8.43;;;7.13;;
1505;SDS011;744;51.436;7.356;2023-07-22T03:01:00;10.43;;;7.20;;
1505;SDS011;744;51.436;7.356;2023-07-22T03:03:29;12.40;;;7.50;;
1505;SDS011;744;51.436;7.356;2023-07-22T03:05:56;8.27;;;7.00;;
1505;SDS011;744;51.436;7.356;2023-07-22T03:08:23;7.47;;;6.17;;
1505;SDS011;744;51.436;7.356;2023-07-22T03:10:51;11.30;;;7.03;;
1505;SDS011;744;51.436;7.356;2023-07-22T03:13:18;9.20;;;7.00;;
1505;SDS011;744;51.436;7.356;2023-07-22T03:15:45;9.30;;;6.40;;
1505;SDS011;744;51.436;7.356;2023-07-22T03:18:12;7.90;;;6.10;;
1505;SDS011;744;51.436;7.356;2023-07-22T03:20:39;7.37;;;6.30;;
1505;SDS011;744;51.436;7.356;2023-07-22T03:23:06;10.00;;;6.60;;
1505;SDS011;744;51.436;7.356;2023-07-22T03:25:34;7.23;;;6.57;;
1505;SDS011;744;51.436;7.356;2023-07-22T03:28:02;7.20;;;6.50;;
1505;SDS011;744;51.436;7.356;2023-07-22T03:30:30;8.30;;;6.00;;
1505;SDS011;744;51.436;7.356;2023-07-22T03:32:58;8.60;;;7.60;;
1505;SDS011;744;51.436;7.356;2023-07-22T03:35:27;6.57;;;5.87;;
1505;SDS011;744;51.436;7.356;2023-07-22T03:37:54;8.17;;;6.60;;
1505;SDS011;744;51.436;7.356;2023-07-22T03:40:21;7.73;;;6.73;;
1505;SDS011;744;51.436;7.356;2023-07-22T03:42:57;7.93;;;6.40;;
1505;SDS011;744;51.436;7.356;2023-07-22T03:45:24;8.57;;;7.10;;
1505;SDS011;744;51.436;7.356;2023-07-22T03:47:52;8.20;;;6.60;;
1505;SDS011;744;51.436;7.356;2023-07-22T03:50:26;7.40;;;6.47;;
1505;SDS011;744;51.436;7.356;2023-07-22T03:52:54;8.27;;;7.27;;
1505;SDS011;744;51.436;7.356;2023-07-22T03:55:20;10.60;;;7.40;;
1505;SDS011;744;51.436;7.356;2023-07-22T03:57:47;7.90;;;6.97;;
1505;SDS011;744;51.436;7.356;2023-07-22T04:00:14;9.53;;;7.43;;
1505;SDS011;744;51.436;7.356;2023-07-22T04:02:41;7.83;;;7.03;;
1505;SDS011;744;51.436;7.356;2023-07-22T04:05:09;8.23;;;6.57;;
1505;SDS011;744;51.436;7.356;2023-07-22T04:07:36;9.20;;;7.30;;
1505;SDS011;744;51.436;7.356;2023-07-22T04:10:03;8.60;;;6.83;;
1505;SDS011;744;51.436;7.356;2023-07-22T04:12:30;7.60;;;6.80;;
1505;SDS011;744;51.436;7.356;2023-07-22T04:14:57;9.40;;;6.63;;
1505;SDS011;744;51.436;7.356;2023-07-22T04:17:23;8.60;;;7.50;;
1505;SDS011;744;51.436;7.356;2023-07-22T04:19:51;9.20;;;7.10;;
1505;SDS011;744;51.436;7.356;2023-07-22T04:22:18;9.23;;;8.23;;
1505;SDS011;744;51.436;7.356;2023-07-22T04:24:46;9.73;;;7.90;;
1505;SDS011;744;51.436;7.356;2023-07-22T04:27:16;7.57;;;6.77;;
1505;SDS011;744;51.436;7.356;2023-07-22T04:29:43;7.60;;;6.90;;
1505;SDS011;744;51.436;7.356;2023-07-22T04:32:10;10.53;;;6.47;;
1505;SDS011;744;51.436;7.356;2023-07-22T04:34:37;7.90;;;6.50;;
1505;SDS011;744;51.436;7.356;2023-07-22T04:37:04;7.63;;;6.50;;
1505;SDS011;744;51.436;7.356;2023-07-22T04:39:31;9.13;;;7.07;;
1505;SDS011;744;51.436;7.356;2023-07-22T04:41:58;8.10;;;6.47;;
1505;SDS011;744;51.436;7.356;2023-07-22T04:44:25;13.13;;;6.77;;
1505;SDS011;744;51.436;7.356;2023-07-22T04:46:53;7.37;;;6.47;;
1505;SDS011;744;51.436;7.356;2023-07-22T04:49:20;7.30;;;6.57;;
1505;SDS011;744;51.436;7.356;2023-07-22T04:51:48;11.20;;;6.57;;
1505;SDS011;744;51.436;7.356;2023-07-22T04:54:15;8.23;;;6.57;;
1505;SDS011;744;51.436;7.356;2023-07-22T04:56:42;8.90;;;6.67;;
1505;SDS011;744;51.436;7.356;2023-07-22T04:59:09;6.87;;;5.87;;
1505;SDS011;744;51.436;7.356;2023-07-22T05:01:36;5.80;;;5.20;;
1505;SDS011;744;51.436;7.356;2023-07-22T05:04:03;7.17;;;6.40;;
1505;SDS011;744;51.436;7.356;2023-07-22T05:06:32;7.70;;;6.70;;
1505;SDS011;744;51.436;7.356;2023-07-22T05:08:59;6.30;;;5.30;;
1505;SDS011;744;51.436;7.356;2023-07-22T05:11:26;7.20;;;5.77;;
1505;SDS011;744;51.436;7.356;2023-07-22T05:13:53;7.63;;;5.30;;
1505;SDS011;744;51.436;7.356;2023-07-22T05:16:20;8.60;;;6.43;;
1505;SDS011;744;51.436;7.356;2023-07-22T05:18:48;7.13;;;6.43;;
1505;SDS011;744;51.436;7.356;2023-07-22T05:21:15;6.40;;;5.70;;
1505;SDS011;744;51.436;7.356;2023-07-22T05:23:42;6.47;;;5.30;;
1505;SDS011;744;51.436;7.356;2023-07-22T05:26:08;6.50;;;5.40;;
1505;SDS011;744;51.436;7.356;2023-07-22T05:28:35;6.50;;;5.57;;
1505;SDS011;744;51.436;7.356;2023-07-22T05:31:02;6.37;;;5.27;;
1505;SDS011;744;51.436;7.356;2023-07-22T05:33:29;7.27;;;5.50;;
1505;SDS011;744;51.436;7.356;2023-07-22T05:35:56;6.53;;;5.20;;
1505;SDS011;744;51.436;7.356;2023-07-22T05:38:23;6.27;;;5.67;;
1505;SDS011;744;51.436;7.356;2023-07-22T05:40:51;6.93;;;5.60;;
1505;SDS011;744;51.436;7.356;2023-07-22T05:43:19;8.33;;;6.30;;
1505;SDS011;744;51.436;7.356;2023-07-22T05:45:47;8.37;;;5.90;;
1505;SDS011;744;51.436;7.356;2023-07-22T05:48:14;5.30;;;4.80;;
1505;SDS011;744;51.436;7.356;2023-07-22T05:50:41;11.47;;;5.53;;
1505;SDS011;744;51.436;7.356;2023-07-22T05:53:08;6.90;;;5.57;;
1505;SDS011;744;51.436;7.356;2023-07-22T05:55:35;6.37;;;4.97;;
1505;SDS011;744;51.436;7.356;2023-07-22T05:58:02;6.20;;;5.60;;
1505;SDS011;744;51.436;7.356;2023-07-22T06:00:32;14.23;;;6.03;;
1505;SDS011;744;51.436;7.356;2023-07-22T06:03:00;8.60;;;5.63;;
1505;SDS011;744;51.436;7.356;2023-07-22T06:05:27;7.37;;;5.70;;
1505;SDS011;744;51.436;7.356;2023-07-22T06:07:54;7.50;;;5.77;;
1505;SDS011;744;51.436;7.356;2023-07-22T06:10:21;7.60;;;4.77;;
1505;SDS011;744;51.436;7.356;2023-07-22T06:12:48;6.83;;;5.13;;
1505;SDS011;744;51.436;7.356;2023-07-22T06:15:15;6.47;;;5.50;;
1505;SDS011;744;51.436;7.356;2023-07-22T06:17:42;5.93;;;4.93;;
1505;SDS011;744;51.436;7.356;2023-07-22T06:20:09;8.07;;;5.40;;
1505;SDS011;744;51.436;7.356;2023-07-22T06:22:36;6.33;;;5.73;;
1505;SDS011;744;51.436;7.356;2023-07-22T06:25:04;8.97;;;5.37;;
1505;SDS011;744;51.436;7.356;2023-07-22T06:27:31;6.60;;;5.67;;
1505;SDS011;744;51.436;7.356;2023-07-22T06:29:59;7.00;;;5.80;;
1505;SDS011;744;51.436;7.356;2023-07-22T06:32:26;7.43;;;5.80;;
1505;SDS011;744;51.436;7.356;2023-07-22T06:34:56;5.50;;;4.97;;
1505;SDS011;744;51.436;7.356;2023-07-22T06:37:24;6.70;;;6.00;;
1505;SDS011;744;51.436;7.356;2023-07-22T06:39:51;8.80;;;6.50;;
1505;SDS011;744;51.436;7.356;2023-07-22T06:42:18;6.93;;;5.87;;
1505;SDS011;744;51.436;7.356;2023-07-22T06:44:45;6.20;;;5.43;;
1505;SDS011;744;51.436;7.356;2023-07-22T06:47:11;7.40;;;5.13;;
1505;SDS011;744;51.436;7.356;2023-07-22T06:49:39;8.00;;;5.50;;
1505;SDS011;744;51.436;7.356;2023-07-22T06:52:10;8.10;;;5.97;;
1505;SDS011;744;51.436;7.356;2023-07-22T06:54:37;6.63;;;5.70;;
1505;SDS011;744;51.436;7.356;2023-07-22T06:57:04;12.13;;;6.50;;
1505;SDS011;744;51.436;7.356;2023-07-22T06:59:32;9.97;;;6.77;;
1505;SDS011;744;51.436;7.356;2023-07-22T07:01:59;6.57;;;5.57;;
1505;SDS011;744;51.436;7.356;2023-07-22T07:04:26;5.90;;;5.30;;
1505;SDS011;744;51.436;7.356;2023-07-22T07:06:53;6.93;;;5.50;;
1505;SDS011;744;51.436;7.356;2023-07-22T07:09:20;6.87;;;5.20;;
1505;SDS011;744;51.436;7.356;2023-07-22T07:11:47;8.77;;;5.60;;
1505;SDS011;744;51.436;7.356;2023-07-22T07:14:14;6.10;;;5.10;;
1505;SDS011;744;51.436;7.356;2023-07-22T07:16:41;6.23;;;5.63;;
1505;SDS011;744;51.436;7.356;2023-07-22T07:19:08;7.37;;;4.57;;
1505;SDS011;744;51.436;7.356;2023-07-22T07:21:35;5.90;;;5.30;;
1505;SDS011;744;51.436;7.356;2023-07-22T07:24:02;5.00;;;4.50;;
1505;SDS011;744;51.436;7.356;2023-07-22T07:26:29;6.70;;;5.20;;
1505;SDS011;744;51.436;7.356;2023-07-22T07:28:56;6.97;;;5.40;;
1505;SDS011;744;51.436;7.356;2023-07-22T07:31:23;7.63;;;5.70;;
1505;SDS011;744;51.436;7.356;2023-07-22T07:33:50;6.30;;;5.60;;
1505;SDS011;744;51.436;7.356;2023-07-22T07:36:17;7.23;;;4.37;;
1505;SDS011;744;51.436;7.356;2023-07-22T07:38:44;4.70;;;4.03;;
1505;SDS011;744;51.436;7.356;2023-07-22T07:41:11;6.13;;;4.40;;
1505;SDS011;744;51.436;7.356;2023-07-22T07:43:39;5.53;;;4.83;;
1505;SDS011;744;51.436;7.356;2023-07-22T07:46:13;6.07;;;5.50;;
1505;SDS011;744;51.436;7.356;2023-07-22T07:48:51;5.40;;;4.90;;
1505;SDS011;744;51.436;7.356;2023-07-22T07:51:23;5.57;;;4.97;;
1505;SDS011;744;51.436;7.356;2023-07-22T07:53:53;8.20;;;7.40;;
1505;SDS011;744;51.436;7.356;2023-07-22T07:56:21;6.00;;;5.40;;
1505;SDS011;744;51.436;7.356;2023-07-22T07:58:49;7.57;;;5.37;;
1505;SDS011;744;51.436;7.356;2023-07-22T08:01:17;5.33;;;4.83;;
1505;SDS011;744;51.436;7.356;2023-07-22T08:03:44;8.67;;;5.20;;
1505;SDS011;744;51.436;7.356;2023-07-22T08:06:11;6.10;;;5.50;;
1505;SDS011;744;51.436;7.356;2023-07-22T08:08:38;7.53;;;6.53;;
1505;SDS011;744;51.436;7.356;2023-07-22T08:11:09;8.30;;;6.13;;
1505;SDS011;744;51.436;7.356;2023-07-22T08:13:40;9.33;;;5.93;;
1505;SDS011;744;51.436;7.356;2023-07-22T08:16:08;5.90;;;5.30;;
1505;SDS011;744;51.436;7.356;2023-07-22T08:18:36;7.10;;;6.03;;
1505;SDS011;744;51.436;7.356;2023-07-22T08:21:04;8.80;;;6.30;;
1505;SDS011;744;51.436;7.356;2023-07-22T08:23:35;5.10;;;4.70;;
1505;SDS011;744;51.436;7.356;2023-07-22T08:26:04;7.57;;;6.80;;
1505;SDS011;744;51.436;7.356;2023-07-22T08:28:34;14.37;;;5.93;;
1505;SDS011;744;51.436;7.356;2023-07-22T08:31:01;8.00;;;5.67;;
1505;SDS011;744;51.436;7.356;2023-07-22T08:33:30;8.40;;;7.13;;
1505;SDS011;744;51.436;7.356;2023-07-22T08:36:07;8.27;;;6.33;;
1505;SDS011;744;51.436;7.356;2023-07-22T08:38:35;7.13;;;6.40;;
1505;SDS011;744;51.436;7.356;2023-07-22T08:41:02;7.13;;;6.43;;
1505;SDS011;744;51.436;7.356;2023-07-22T08:43:29;6.67;;;5.87;;
1505;SDS011;744;51.436;7.356;2023-07-22T08:45:59;6.90;;;6.20;;
1505;SDS011;744;51.436;7.356;2023-07-22T08:48:29;13.67;;;6.30;;
1505;SDS011;744;51.436;7.356;2023-07-22T08:51:06;6.77;;;5.80;;
1505;SDS011;744;51.436;7.356;2023-07-22T08:53:37;6.57;;;5.50;;
1505;SDS011;744;51.436;7.356;2023-07-22T08:56:04;7.83;;;6.23;;
1505;SDS011;744;51.436;7.356;2023-07-22T08:58:31;7.07;;;6.27;;
1505;SDS011;744;51.436;7.356;2023-07-22T09:00:58;7.40;;;6.60;;
1505;SDS011;744;51.436;7.356;2023-07-22T09:03:26;8.10;;;6.50;;
1505;SDS011;744;51.436;7.356;2023-07-22T09:05:53;6.30;;;5.40;;
1505;SDS011;744;51.436;7.356;2023-07-22T09:08:21;7.20;;;6.23;;
1505;SDS011;744;51.436;7.356;2023-07-22T09:10:48;7.53;;;6.10;;
1505;SDS011;744;51.436;7.356;2023-07-22T09:13:15;7.60;;;5.30;;
1505;SDS011;744;51.436;7.356;2023-07-22T09:15:44;107.80;;;15.30;;
1505;SDS011;744;51.436;7.356;2023-07-22T09:18:12;7.77;;;6.40;;
1505;SDS011;744;51.436;7.356;2023-07-22T09:20:41;5.77;;;5.17;;
1505;SDS011;744;51.436;7.356;2023-07-22T09:23:08;7.50;;;5.50;;
1505;SDS011;744;51.436;7.356;2023-07-22T09:25:40;7.13;;;5.40;;
1505;SDS011;744;51.436;7.356;2023-07-22T09:28:08;7.50;;;6.23;;
1505;SDS011;744;51.436;7.356;2023-07-22T09:30:37;7.10;;;6.33;;
1505;SDS011;744;51.436;7.356;2023-07-22T09:33:05;6.20;;;5.60;;
1505;SDS011;744;51.436;7.356;2023-07-22T09:35:54;6.10;;;5.50;;
1505;SDS011;744;51.436;7.356;2023-07-22T09:38:22;5.63;;;5.13;;
1505;SDS011;744;51.436;7.356;2023-07-22T09:40:51;6.90;;;5.20;;
1505;SDS011;744;51.436;7.356;2023-07-22T09:43:18;5.53;;;4.97;;
1505;SDS011;744;51.436;7.356;2023-07-22T09:45:48;5.33;;;4.83;;
1505;SDS011;744;51.436;7.356;2023-07-22T09:48:15;9.27;;;5.90;;
1505;SDS011;744;51.436;7.356;2023-07-22T09:50:43;7.27;;;5.73;;
1505;SDS011;744;51.436;7.356;2023-07-22T09:53:10;7.40;;;4.70;;
1505;SDS011;744;51.436;7.356;2023-07-22T09:55:41;6.00;;;5.40;;
1505;SDS011;744;51.436;7.356;2023-07-22T09:58:08;7.83;;;6.07;;
1505;SDS011;744;51.436;7.356;2023-07-22T10:00:37;5.60;;;5.00;;
1505;SDS011;744;51.436;7.356;2023-07-22T10:03:08;6.80;;;5.20;;
1505;SDS011;744;51.436;7.356;2023-07-22T10:05:40;6.60;;;5.63;;
1505;SDS011;744;51.436;7.356;2023-07-22T10:08:08;5.87;;;5.37;;
1505;SDS011;744;51.436;7.356;2023-07-22T10:10:38;9.00;;;5.60;;
1505;SDS011;744;51.436;7.356;2023-07-22T10:13:05;8.43;;;5.97;;
1505;SDS011;744;51.436;7.356;2023-07-22T10:15:33;5.50;;;4.67;;
1505;SDS011;744;51.436;7.356;2023-07-22T10:18:03;5.90;;;5.40;;
1505;SDS011;744;51.436;7.356;2023-07-22T10:20:34;6.33;;;5.80;;
1505;SDS011;744;51.436;7.356;2023-07-22T10:23:03;6.97;;;5.17;;
1505;SDS011;744;51.436;7.356;2023-07-22T10:25:30;6.10;;;4.90;;
1505;SDS011;744;51.436;7.356;2023-07-22T10:27:58;6.03;;;5.10;;
1505;SDS011;744;51.436;7.356;2023-07-22T10:30:25;8.83;;;5.70;;
1505;SDS011;744;51.436;7.356;2023-07-22T10:32:52;5.20;;;4.70;;
1505;SDS011;744;51.436;7.356;2023-07-22T10:38:11;6.93;;;4.90;;
1505;SDS011;744;51.436;7.356;2023-07-22T10:40:54;4.70;;;3.80;;
1505;SDS011;744;51.436;7.356;2023-07-22T10:43:29;5.10;;;4.00;;
1505;SDS011;744;51.436;7.356;2023-07-22T10:46:11;4.90;;;4.40;;
1505;SDS011;744;51.436;7.356;2023-07-22T10:48:40;4.33;;;3.93;;
1505;SDS011;744;51.436;7.356;2023-07-22T10:51:11;4.30;;;3.90;;
1505;SDS011;744;51.436;7.356;2023-07-22T10:53:44;4.80;;;4.40;;
1505;SDS011;744;51.436;7.356;2023-07-22T11:06:33;4.63;;;3.80;;
1505;SDS011;744;51.436;7.356;2023-07-22T11:09:01;5.47;;;3.50;;
1505;SDS011;744;51.436;7.356;2023-07-22T11:11:39;6.50;;;3.90;;
1505;SDS011;744;51.436;7.356;2023-07-22T11:14:16;4.30;;;3.90;;
1505;SDS011;744;51.436;7.356;2023-07-22T11:16:46;4.17;;;3.77;;
1505;SDS011;744;51.436;7.356;2023-07-22T11:19:14;6.10;;;3.57;;
1505;SDS011;744;51.436;7.356;2023-07-22T11:21:42;3.93;;;3.50;;
1505;SDS011;744;51.436;7.356;2023-07-22T11:24:10;3.50;;;3.20;;
1505;SDS011;744;51.436;7.356;2023-07-22T11:26:38;5.50;;;4.30;;
1505;SDS011;744;51.436;7.356;2023-07-22T11:29:06;3.20;;;2.90;;
1505;SDS011;744;51.436;7.356;2023-07-22T11:31:34;3.30;;;3.00;;
1505;SDS011;744;51.436;7.356;2023-07-22T11:34:12;3.03;;;2.30;;
1505;SDS011;744;51.436;7.356;2023-07-22T11:36:41;3.37;;;2.67;;
1505;SDS011;744;51.436;7.356;2023-07-22T11:39:11;3.07;;;2.80;;
1505;SDS011;744;51.436;7.356;2023-07-22T11:41:42;2.60;;;2.40;;
1505;SDS011;744;51.436;7.356;2023-07-22T11:44:11;3.93;;;2.63;;
1505;SDS011;744;51.436;7.356;2023-07-22T11:47:14;3.57;;;2.30;;
1505;SDS011;744;51.436;7.356;2023-07-22T11:49:39;2.77;;;2.30;;
1505;SDS011;744;51.436;7.356;2023-07-22T11:52:10;5.80;;;2.47;;
1505;SDS011;744;51.436;7.356;2023-07-22T11:54:42;3.17;;;2.10;;
1505;SDS011;744;51.436;7.356;2023-07-22T11:57:22;3.00;;;2.13;;
1505;SDS011;744;51.436;7.356;2023-07-22T11:59:51;3.50;;;2.70;;
1505;SDS011;744;51.436;7.356;2023-07-22T12:02:20;3.10;;;2.80;;
1505;SDS011;744;51.436;7.356;2023-07-22T12:07:38;6.47;;;2.70;;
1505;SDS011;744;51.436;7.356;2023-07-22T12:10:06;3.00;;;2.23;;
1505;SDS011;744;51.436;7.356;2023-07-22T12:15:11;3.40;;;3.10;;
1505;SDS011;744;51.436;7.356;2023-07-22T12:20:18;2.90;;;2.63;;
1505;SDS011;744;51.436;7.356;2023-07-22T12:22:45;4.23;;;2.80;;
1505;SDS011;744;51.436;7.356;2023-07-22T12:25:12;4.53;;;2.40;;
1505;SDS011;744;51.436;7.356;2023-07-22T12:27:39;2.77;;;2.57;;
1505;SDS011;744;51.436;7.356;2023-07-22T12:30:06;6.23;;;2.77;;
1505;SDS011;744;51.436;7.356;2023-07-22T12:32:34;4.97;;;2.50;;
1505;SDS011;744;51.436;7.356;2023-07-22T12:35:01;2.10;;;1.90;;
1505;SDS011;744;51.436;7.356;2023-07-22T12:37:30;5.20;;;2.37;;
1505;SDS011;744;51.436;7.356;2023-07-22T12:39:56;2.60;;;2.40;;
1505;SDS011;744;51.436;7.356;2023-07-22T12:42:24;4.13;;;2.50;;
1505;SDS011;744;51.436;7.356;2023-07-22T12:44:51;3.07;;;2.40;;
1505;SDS011;744;51.436;7.356;2023-07-22T12:47:18;3.47;;;2.80;;
1505;SDS011;744;51.436;7.356;2023-07-22T12:49:45;5.83;;;3.43;;
1505;SDS011;744;51.436;7.356;2023-07-22T12:52:12;2.50;;;2.30;;
1505;SDS011;744;51.436;7.356;2023-07-22T12:54:41;4.00;;;2.50;;
1505;SDS011;744;51.436;7.356;2023-07-22T12:57:07;4.20;;;2.20;;
1505;SDS011;744;51.436;7.356;2023-07-22T12:59:34;2.70;;;2.33;;
1505;SDS011;744;51.436;7.356;2023-07-22T13:02:01;3.57;;;1.90;;
1505;SDS011;744;51.436;7.356;2023-07-22T13:04:28;3.97;;;2.50;;
1505;SDS011;744;51.436;7.356;2023-07-22T13:06:55;2.10;;;1.93;;
1505;SDS011;744;51.436;7.356;2023-07-22T13:09:22;2.53;;;2.13;;
1505;SDS011;744;51.436;7.356;2023-07-22T13:11:49;2.70;;;2.50;;
1505;SDS011;744;51.436;7.356;2023-07-22T13:14:16;2.87;;;2.40;;
1505;SDS011;744;51.436;7.356;2023-07-22T13:16:44;2.97;;;2.67;;
1505;SDS011;744;51.436;7.356;2023-07-22T13:19:11;2.30;;;2.10;;
1505;SDS011;744;51.436;7.356;2023-07-22T13:21:38;4.10;;;2.60;;
1505;SDS011;744;51.436;7.356;2023-07-22T13:24:05;3.87;;;2.33;;
1505;SDS011;744;51.436;7.356;2023-07-22T13:26:33;3.00;;;2.70;;
1505;SDS011;744;51.436;7.356;2023-07-22T13:29:05;2.40;;;2.20;;
1505;SDS011;744;51.436;7.356;2023-07-22T13:31:32;2.53;;;2.33;;
1505;SDS011;744;51.436;7.356;2023-07-22T13:33:59;2.37;;;2.17;;
1505;SDS011;744;51.436;7.356;2023-07-22T13:36:26;2.47;;;2.20;;
1505;SDS011;744;51.436;7.356;2023-07-22T13:38:53;2.63;;;2.40;;
1505;SDS011;744;51.436;7.356;2023-07-22T13:41:20;3.03;;;2.70;;
1505;SDS011;744;51.436;7.356;2023-07-22T13:43:46;2.60;;;2.40;;
1505;SDS011;744;51.436;7.356;2023-07-22T13:46:13;5.63;;;2.90;;
1505;SDS011;744;51.436;7.356;2023-07-22T13:48:40;5.33;;;3.10;;
1505;SDS011;744;51.436;7.356;2023-07-22T13:51:07;3.80;;;3.10;;
1505;SDS011;744;51.436;7.356;2023-07-22T13:53:34;9.43;;;2.63;;
1505;SDS011;744;51.436;7.356;2023-07-22T13:56:01;3.23;;;2.83;;
1505;SDS011;744;51.436;7.356;2023-07-22T13:58:29;4.17;;;2.80;;
1505;SDS011;744;51.436;7.356;2023-07-22T14:00:56;4.57;;;3.37;;
1505;SDS011;744;51.436;7.356;2023-07-22T14:03:26;5.20;;;2.83;;
1505;SDS011;744;51.436;7.356;2023-07-22T14:05:53;4.20;;;2.60;;
1505;SDS011;744;51.436;7.356;2023-07-22T14:08:20;2.47;;;2.27;;
1505;SDS011;744;51.436;7.356;2023-07-22T14:10:47;3.43;;;2.47;;
1505;SDS011;744;51.436;7.356;2023-07-22T14:13:14;2.80;;;2.60;;
1505;SDS011;744;51.436;7.356;2023-07-22T14:15:41;3.53;;;2.33;;
1505;SDS011;744;51.436;7.356;2023-07-22T14:18:08;3.30;;;3.00;;
1505;SDS011;744;51.436;7.356;2023-07-22T14:20:35;3.17;;;2.67;;
1505;SDS011;744;51.436;7.356;2023-07-22T14:23:02;2.80;;;2.40;;
1505;SDS011;744;51.436;7.356;2023-07-22T14:25:31;4.13;;;2.60;;
1505;SDS011;744;51.436;7.356;2023-07-22T14:27:57;3.10;;;2.17;;
1505;SDS011;744;51.436;7.356;2023-07-22T14:30:24;2.40;;;2.20;;
1505;SDS011;744;51.436;7.356;2023-07-22T14:32:52;3.00;;;2.57;;
1505;SDS011;744;51.436;7.356;2023-07-22T14:35:19;7.00;;;2.60;;
1505;SDS011;744;51.436;7.356;2023-07-22T14:37:46;4.37;;;4.00;;
1505;SDS011;744;51.436;7.356;2023-07-22T14:40:13;3.53;;;2.43;;
1505;SDS011;744;51.436;7.356;2023-07-22T14:42:40;2.83;;;1.90;;
1505;SDS011;744;51.436;7.356;2023-07-22T14:45:07;2.93;;;2.67;;
1505;SDS011;744;51.436;7.356;2023-07-22T14:47:34;6.83;;;2.60;;
1505;SDS011;744;51.436;7.356;2023-07-22T14:50:02;3.30;;;3.00;;
1505;SDS011;744;51.436;7.356;2023-07-22T14:52:29;2.67;;;2.47;;
1505;SDS011;744;51.436;7.356;2023-07-22T14:54:55;2.80;;;2.47;;
1505;SDS011;744;51.436;7.356;2023-07-22T14:57:22;3.40;;;2.40;;
1505;SDS011;744;51.436;7.356;2023-07-22T14:59:52;2.50;;;2.00;;
1505;SDS011;744;51.436;7.356;2023-07-22T15:02:19;2.37;;;2.17;;
1505;SDS011;744;51.436;7.356;2023-07-22T15:04:46;3.23;;;2.30;;
1505;SDS011;744;51.436;7.356;2023-07-22T15:07:13;2.77;;;2.57;;
1505;SDS011;744;51.436;7.356;2023-07-22T15:09:40;2.53;;;2.33;;
1505;SDS011;744;51.436;7.356;2023-07-22T15:12:07;6.50;;;3.30;;
1505;SDS011;744;51.436;7.356;2023-07-22T15:14:35;3.40;;;2.53;;
1505;SDS011;744;51.436;7.356;2023-07-22T15:17:02;4.90;;;4.17;;
1505;SDS011;744;51.436;7.356;2023-07-22T15:19:29;4.80;;;3.30;;
1505;SDS011;744;51.436;7.356;2023-07-22T15:21:56;3.77;;;2.60;;
1505;SDS011;744;51.436;7.356;2023-07-22T15:24:23;4.40;;;2.60;;
1505;SDS011;744;51.436;7.356;2023-07-22T15:26:49;5.43;;;3.10;;
1505;SDS011;744;51.436;7.356;2023-07-22T15:29:16;5.80;;;3.07;;
1505;SDS011;744;51.436;7.356;2023-07-22T15:31:43;3.80;;;2.87;;
1505;SDS011;744;51.436;7.356;2023-07-22T15:34:10;7.10;;;3.50;;
1505;SDS011;744;51.436;7.356;2023-07-22T15:36:37;5.27;;;2.87;;
1505;SDS011;744;51.436;7.356;2023-07-22T15:39:04;3.73;;;3.03;;
1505;SDS011;744;51.436;7.356;2023-07-22T15:41:31;6.33;;;3.10;;
1505;SDS011;744;51.436;7.356;2023-07-22T15:43:58;4.80;;;3.43;;
1505;SDS011;744;51.436;7.356;2023-07-22T15:46:24;3.60;;;3.00;;
1505;SDS011;744;51.436;7.356;2023-07-22T15:48:51;4.93;;;3.63;;
1505;SDS011;744;51.436;7.356;2023-07-22T15:51:18;5.70;;;3.70;;
1505;SDS011;744;51.436;7.356;2023-07-22T15:53:45;5.07;;;3.50;;
1505;SDS011;744;51.436;7.356;2023-07-22T15:56:12;3.77;;;3.20;;